Parnell, Kentucky
Current Conditions -  °F | °C
As of 2:56 PM on Saturday 25 Oct 2014 (Local Time) from KEKQ Reporting Station
Few Clouds Few Clouds  
Wind Chill: 71°   Ceiling: Unl
Heat Index: 71°   Visibility: 10mi
Dew Point: 55°   Wind: 8mph
Humidity: 57%   Direction: 240°WSW
Pressure: 30.03"   Gusts: NA
Location:  36.8129°N, 84.8215°W
Report Text: KEKQ 251856Z AUTO 24007KT 10SM FEW060 22/13 A3003 RMK AO2 T02160127 SLP175
Loading
Personal Weather Stations






























Interactive Weather Map
Tropical Storm Tracking
New forecast layout! Learn more

10-Day Weather Forecast

Advertisements
Track Severe Weather on mobile